AirNav   Air Wisconsin Up To $57,000 Bonus
 
 1458 users online  

WA08 Zwainz Farms Airport
Reardan, Washington, USA

GOING TO REARDAN?


FAA INFORMATION EFFECTIVE 02 DECEMBER 2021

Location

FAA Identifier: WA08
Lat/Long: 47-42-48.3800N 117-55-11.9600W
47-42.806333N 117-55.199333W
47.7134389,-117.9199889
(estimated)
Elevation: 2795 ft. / 852 m (estimated)
Variation: 19E (1985)
From city: 4 miles NW of REARDAN, WA
Time zone: UTC -8 (UTC -7 during Daylight Saving Time)
Zip code: 99029

Airport Operations

Airport use: Private use. Permission required prior to landing
Activation date: 11/1990
Control tower: no
ARTCC: SEATTLE CENTER
FSS: SEATTLE FLIGHT SERVICE STATION
Attendance: APR-OCT 24 HOURS/DAY
Wind indicator: yes
Segmented circle: no
Lights: SS-SR

Airport Communications

WX ASOS at GEG (17 nm E): PHONE 509-742-2544

Nearby radio navigation aids

VOR radial/distance  VOR name  Freq  Var
GEGr286/14.8SPOKANE VORTAC115.5021E

 
NDB name  Hdg/Dist  Freq  Var  ID
DEER PARK216/25.136516EDPY -.. .--. -.--

Airport Services

Runway Information

Runway 5/23

Dimensions: 2600 x 45 ft. / 792 x 14 m
Surface: turf
Runway edge lights: non-standard
NSTD LIRL.
RUNWAY 5  RUNWAY 23
Traffic pattern: leftleft
Obstructions: 60 ft. pline, marked, 800 ft. from runway25 ft. bldg, 60 ft. from runway

Airport Ownership and Management from official FAA records

Ownership: Privately-owned
Owner: ZWAINZ FARMS, INC
30879 ZWAINS RD NORTH
REARDAN, WA 99029
Phone 509-796-2027
Manager: THOMAS G. ZWAINZ
30879 ZWAINS RD NORTH
REARDAN, WA 99029
Phone 509-796-2027

Airport Operational Statistics

Aircraft based on the field: 1
Single engine airplanes: 1
    

Additional Remarks

FOR CD CTC SPOKANE APCH AT 509-742-2522

Instrument Procedures

There are no published instrument procedures at WA08.

Some nearby airports with instrument procedures:

KSKA - Fairchild Air Force Base (12 nm SE)
KGEG - Spokane International Airport (17 nm E)
KSFF - Felts Field Airport (24 nm E)
KDEW - Deer Park Airport (25 nm NE)
2S8 - Wilbur Airport (33 nm W)
 
Loc | Ops | Rwys | IFR | FBO | Links
Com | Nav | Svcs | Stats | Notes
Area around WA08 (Zwainz Farms Airport)
 
Road maps at: MapQuest Bing Google
 
Aerial photo
No photo
 
Sectional chart

 
Airport distance calculator
Flying to Zwainz Farms Airport? Find the distance to fly.

From to WA08

Sunrise and sunset
Times for 06-Dec-2021
 Local
(UTC-8)
 Zulu
(UTC)
Morning civil twilight06:5114:51
Sunrise07:2615:26
Sunset15:5923:59
Evening civil twilight16:3500:35

Current date and time
Zulu (UTC)  06-Dec-2021 17:16:21
Local (UTC-8)  06-Dec-2021 09:16:21
 
METAR
KSKA 
12nm SE 
061648Z 03008KT 1 1/2SM -SN BR FEW022 BKN027 BKN033 BKN040 BKN047 M05/M06 A3004 RMK AO2A SNB14 CIG 027V036 SLP207 $
KGEG 
17nm E 
061653Z 02006KT 1 1/2SM BR BKN025 OVC035 M05/M07 A3006 RMK AO2 SLP209 P0000 T10501072 $
KSFF 
24nm E 
061700Z 00000KT 1 3/4SM -SN OVC030 M03/M07 A3009 RMK AO2 P0000 T10331067
TAF
KSKA 
12nm SE 
061100Z 0611/0717 07006KT 9999 SCT020 SCT025 OVC030 620309 QNH3010INS TEMPO 0611/0612 -SHSN BECMG 0612/0614 VRB06KT 4800 -SN BKN020 OVC030 610209 QNH2999INS TEMPO 0617/0621 3200 BR BKN008 OVC010 620089 BECMG 0701/0703 VRB06KT 1600 BR VCSH OVC005 620058 QNH2997INS BECMG 0704/0705 03004KT 0400 FZFG VV002 620028 QNH2999INS TXM01/0621Z TNM06/0715Z
KGEG 
17nm E 
061409Z 0614/0712 09005KT P6SM -SN BKN050 OVC070 FM061600 12004KT 2SM -SN OVC035 FM061900 04003KT 1SM -SN BR OVC015 FM070000 02004KT 2SM BR OVC015 FM070400 VRB04KT 3SM BR BKN010 FM071000 VRB03KT 1/4SM FZFG OVC004
NOTAMs
Click for the latest NOTAMs
NOTAMs are issued by the DoD/FAA and will open in a separate window not controlled by AirNav.

 

 
 

Would you like to see your business listed on this page?

 If your business provides an interesting product or service to pilots, flight crews, aircraft, or users of the Zwainz Farms Airport, you should consider listing it here.  To start the listing process, click on the button below
 
Add a business
 

Other Pages about Zwainz Farms Airport

Update a link
 
Copyright © AirNav, LLC. All rights reserved. Privacy Policy  Contact